Time;durP1;ratioP1;P1;durP2;ratioP2;P2;SDS_P1;SDS_P2;PMS_P1;PMS_P2;Temp;Humidity;BMP_temperature;BMP_pressure;BME280_temperature;BME280_humidity;BME280_pressure;Samples;Min_cycle;Max_cycle;Signal;HPM_P1;HPM_P2
2022/07/26 00:01:04;;;;;;;16.08;10.20;;;;;;;;;;5118285;28;20034;-78
2022/07/26 00:03:30;;;;;;;14.05;9.40;;;;;;;;;;5118005;28;20027;-78
2022/07/26 00:05:55;;;;;;;15.55;7.40;;;;;;;;;;5119424;28;20400;-78
2022/07/26 00:08:20;;;;;;;14.93;9.25;;;;;;;;;;5118418;28;20107;-79
2022/07/26 00:10:49;;;;;;;10.70;7.40;;;;;;;;;;5119443;28;20019;-78
2022/07/26 00:13:19;;;;;;;10.43;6.95;;;;;;;;;;5120677;28;20675;-79
2022/07/26 00:15:46;;;;;;;12.63;7.50;;;;;;;;;;5119549;28;20565;-79
2022/07/26 00:18:12;;;;;;;13.02;7.93;;;;;;;;;;5117559;28;20157;-78
2022/07/26 00:20:37;;;;;;;15.80;7.88;;;;;;;;;;5116909;28;20076;-79
2022/07/26 00:23:03;;;;;;;11.40;7.50;;;;;;;;;;5118484;28;20534;-79
2022/07/26 00:25:28;;;;;;;11.88;7.75;;;;;;;;;;5118644;28;20027;-78
2022/07/26 00:27:54;;;;;;;10.55;7.47;;;;;;;;;;5118732;28;20028;-78
2022/07/26 00:30:19;;;;;;;10.82;6.82;;;;;;;;;;5118519;28;20062;-79
2022/07/26 00:32:45;;;;;;;9.70;6.43;;;;;;;;;;5119533;28;20023;-78
2022/07/26 00:35:11;;;;;;;11.90;6.32;;;;;;;;;;5119157;28;20027;-79
2022/07/26 00:37:37;;;;;;;10.07;6.60;;;;;;;;;;5117874;28;20164;-78
2022/07/26 00:40:03;;;;;;;9.00;5.68;;;;;;;;;;5120735;28;20102;-79
2022/07/26 00:42:29;;;;;;;11.35;5.88;;;;;;;;;;5119486;28;20023;-78
2022/07/26 00:44:54;;;;;;;10.95;6.38;;;;;;;;;;5119407;28;20102;-78
2022/07/26 00:47:19;;;;;;;11.60;6.30;;;;;;;;;;5118883;28;20031;-79
2022/07/26 00:49:45;;;;;;;15.18;8.07;;;;;;;;;;5119284;28;20031;-79
2022/07/26 00:52:11;;;;;;;12.07;7.67;;;;;;;;;;5119673;28;20034;-79
2022/07/26 00:54:38;;;;;;;16.20;8.00;;;;;;;;;;5120446;28;20308;-78
2022/07/26 00:57:04;;;;;;;11.77;7.05;;;;;;;;;;5119759;28;20030;-79
2022/07/26 00:59:29;;;;;;;13.43;7.65;;;;;;;;;;5120553;28;20027;-77
2022/07/26 01:01:54;;;;;;;13.52;7.38;;;;;;;;;;5119536;28;20055;-80
2022/07/26 01:04:20;;;;;;;14.07;8.15;;;;;;;;;;5119581;28;20077;-79
2022/07/26 01:06:47;;;;;;;11.23;7.35;;;;;;;;;;5119791;28;20038;-77
2022/07/26 01:09:13;;;;;;;12.25;6.97;;;;;;;;;;5120127;28;20070;-78
2022/07/26 01:11:38;;;;;;;11.77;7.10;;;;;;;;;;5119105;28;20019;-79
2022/07/26 01:14:03;;;;;;;11.68;6.85;;;;;;;;;;5120177;28;20120;-79
2022/07/26 01:16:29;;;;;;;14.88;7.32;;;;;;;;;;5121001;28;20051;-78
2022/07/26 01:18:54;;;;;;;21.45;8.40;;;;;;;;;;5120868;28;20046;-79
2022/07/26 01:21:21;;;;;;;23.47;11.20;;;;;;;;;;5125920;28;20035;-79
2022/07/26 01:23:47;;;;;;;26.08;12.75;;;;;;;;;;5126071;28;20275;-79
2022/07/26 01:26:12;;;;;;;45.43;25.97;;;;;;;;;;5126766;28;20062;-78
2022/07/26 01:28:39;;;;;;;53.28;29.02;;;;;;;;;;5122865;28;20388;-78
2022/07/26 01:31:06;;;;;;;61.08;32.97;;;;;;;;;;5123815;28;20027;-79
2022/07/26 01:33:33;;;;;;;78.20;42.50;;;;;;;;;;5125663;28;20418;-78
2022/07/26 01:35:58;;;;;;;81.25;43.60;;;;;;;;;;5126313;28;20031;-78
2022/07/26 01:38:24;;;;;;;73.68;40.15;;;;;;;;;;5126012;28;20015;-79
2022/07/26 01:40:50;;;;;;;66.15;37.70;;;;;;;;;;5125323;28;20023;-79
2022/07/26 01:43:15;;;;;;;66.43;38.60;;;;;;;;;;5126409;28;20020;-79
2022/07/26 01:45:40;;;;;;;66.83;37.23;;;;;;;;;;5126396;28;20114;-79
2022/07/26 01:48:08;;;;;;;66.90;37.73;;;;;;;;;;5125865;28;20252;-79
2022/07/26 01:50:35;;;;;;;66.18;37.35;;;;;;;;;;5126235;28;20342;-79
2022/07/26 01:53:00;;;;;;;65.82;37.83;;;;;;;;;;5125694;28;20168;-79
2022/07/26 01:55:25;;;;;;;62.20;36.73;;;;;;;;;;5125614;28;20028;-79
2022/07/26 01:57:50;;;;;;;53.97;33.60;;;;;;;;;;5125556;28;20244;-79
2022/07/26 02:00:16;;;;;;;60.90;34.60;;;;;;;;;;5124996;28;20256;-77
2022/07/26 02:02:41;;;;;;;61.45;33.90;;;;;;;;;;5125885;28;20288;-77
2022/07/26 02:05:07;;;;;;;58.97;33.45;;;;;;;;;;5127500;28;20532;-78
2022/07/26 02:07:40;;;;;;;54.58;30.88;;;;;;;;;;5126102;28;20023;-78
2022/07/26 02:10:07;;;;;;;47.70;29.20;;;;;;;;;;5126324;28;20035;-78
2022/07/26 02:12:32;;;;;;;45.60;25.98;;;;;;;;;;5126638;28;20384;-79
2022/07/26 02:14:58;;;;;;;41.40;21.63;;;;;;;;;;5125862;28;20034;-79
2022/07/26 02:17:24;;;;;;;38.20;22.48;;;;;;;;;;5127038;28;20031;-80
2022/07/26 02:19:50;;;;;;;44.47;24.33;;;;;;;;;;5128263;28;20653;-79
2022/07/26 02:22:16;;;;;;;36.85;23.58;;;;;;;;;;5127218;28;20380;-79
2022/07/26 02:24:41;;;;;;;49.75;25.88;;;;;;;;;;5126940;28;20047;-78
2022/07/26 02:27:07;;;;;;;47.03;25.73;;;;;;;;;;5127722;28;20027;-78
2022/07/26 02:29:33;;;;;;;45.33;26.55;;;;;;;;;;5126745;28;20263;-79
2022/07/26 02:31:58;;;;;;;41.65;25.38;;;;;;;;;;5126997;28;20027;-79
2022/07/26 02:34:24;;;;;;;48.30;26.63;;;;;;;;;;5126560;28;20028;-79
2022/07/26 02:36:50;;;;;;;41.58;24.63;;;;;;;;;;5126988;28;20024;-79
2022/07/26 02:39:15;;;;;;;44.80;25.70;;;;;;;;;;5125885;28;20045;-79
2022/07/26 02:41:41;;;;;;;45.80;24.88;;;;;;;;;;5127252;28;20103;-80
2022/07/26 02:44:07;;;;;;;42.38;25.88;;;;;;;;;;5126880;28;20030;-80
2022/07/26 02:46:33;;;;;;;43.13;24.48;;;;;;;;;;5127527;28;20072;-79
2022/07/26 02:49:01;;;;;;;42.22;23.95;;;;;;;;;;5126103;28;20023;-80
2022/07/26 02:51:27;;;;;;;41.58;21.45;;;;;;;;;;5124866;28;20118;-80
2022/07/26 02:53:55;;;;;;;37.88;20.98;;;;;;;;;;5124863;28;20078;-78
2022/07/26 02:56:21;;;;;;;38.22;19.95;;;;;;;;;;5126794;28;20028;-80
2022/07/26 02:58:46;;;;;;;31.02;17.17;;;;;;;;;;5126992;28;20035;-79
2022/07/26 03:01:11;;;;;;;30.33;16.30;;;;;;;;;;5126441;28;20034;-80
2022/07/26 03:03:36;;;;;;;31.23;17.63;;;;;;;;;;5125281;28;20307;-80
2022/07/26 03:06:02;;;;;;;28.05;16.17;;;;;;;;;;5126903;28;20031;-80
2022/07/26 03:08:27;;;;;;;31.27;13.98;;;;;;;;;;5126036;28;20032;-80
2022/07/26 03:10:53;;;;;;;26.23;14.85;;;;;;;;;;5125291;28;20024;-80
2022/07/26 03:13:18;;;;;;;24.03;14.00;;;;;;;;;;5123389;28;20031;-80
2022/07/26 03:15:43;;;;;;;29.98;15.82;;;;;;;;;;5124903;28;20266;-81
2022/07/26 03:18:08;;;;;;;31.40;16.48;;;;;;;;;;5123748;28;20080;-79
2022/07/26 03:20:34;;;;;;;29.87;17.50;;;;;;;;;;5123585;28;20019;-78
2022/07/26 03:22:59;;;;;;;32.70;18.00;;;;;;;;;;5122186;28;20276;-80
2022/07/26 03:25:24;;;;;;;34.63;19.67;;;;;;;;;;5124514;28;20347;-79
2022/07/26 03:27:49;;;;;;;32.95;18.73;;;;;;;;;;5123033;28;20260;-80
2022/07/26 03:30:15;;;;;;;29.40;18.98;;;;;;;;;;5122883;28;20419;-80
2022/07/26 03:32:40;;;;;;;29.77;18.35;;;;;;;;;;5123123;28;20059;-80
2022/07/26 03:35:07;;;;;;;32.35;18.33;;;;;;;;;;5121701;28;20384;-80
2022/07/26 03:37:32;;;;;;;27.77;15.18;;;;;;;;;;5122178;28;20027;-79
2022/07/26 03:39:57;;;;;;;24.65;13.60;;;;;;;;;;5121942;28;20027;-79
2022/07/26 03:42:23;;;;;;;26.58;11.93;;;;;;;;;;5120928;28;20023;-79
2022/07/26 03:44:48;;;;;;;20.95;11.20;;;;;;;;;;5122375;28;20032;-79
2022/07/26 03:47:13;;;;;;;18.67;11.33;;;;;;;;;;5123064;28;20415;-79
2022/07/26 03:49:38;;;;;;;22.23;12.47;;;;;;;;;;5120805;28;20251;-78
2022/07/26 03:52:04;;;;;;;23.65;12.85;;;;;;;;;;5121294;28;20259;-80
2022/07/26 03:54:29;;;;;;;24.35;12.50;;;;;;;;;;5121854;28;20087;-79
2022/07/26 03:56:54;;;;;;;19.73;11.95;;;;;;;;;;5121598;28;20024;-79
2022/07/26 03:59:20;;;;;;;21.48;12.27;;;;;;;;;;5120208;28;20112;-79
2022/07/26 04:01:46;;;;;;;25.25;12.25;;;;;;;;;;5121601;28;20036;-79
2022/07/26 04:04:13;;;;;;;21.48;12.60;;;;;;;;;;5122249;28;20391;-80
2022/07/26 04:06:39;;;;;;;23.92;13.00;;;;;;;;;;5122701;28;20027;-78
2022/07/26 04:09:06;;;;;;;22.67;13.45;;;;;;;;;;5122639;28;20496;-79
2022/07/26 04:11:31;;;;;;;24.33;13.38;;;;;;;;;;5123356;28;20031;-78
2022/07/26 04:13:58;;;;;;;24.85;13.63;;;;;;;;;;5121819;28;20038;-79
2022/07/26 04:16:24;;;;;;;26.08;12.98;;;;;;;;;;5122063;28;20031;-80
2022/07/26 04:18:49;;;;;;;20.10;11.30;;;;;;;;;;5122367;28;20019;-80
2022/07/26 04:21:15;;;;;;;27.58;11.88;;;;;;;;;;5123229;28;20027;-79
2022/07/26 04:23:40;;;;;;;23.15;11.25;;;;;;;;;;5124377;28;20020;-80
2022/07/26 04:26:05;;;;;;;15.93;9.50;;;;;;;;;;5128158;28;20039;-80
2022/07/26 04:28:31;;;;;;;16.00;9.30;;;;;;;;;;5126974;28;20026;-81
2022/07/26 04:30:58;;;;;;;15.73;9.18;;;;;;;;;;5126036;28;20019;-78
2022/07/26 04:33:23;;;;;;;16.65;9.23;;;;;;;;;;5126542;28;20106;-81
2022/07/26 04:35:49;;;;;;;15.30;7.90;;;;;;;;;;5125876;28;20026;-80
2022/07/26 04:38:14;;;;;;;16.52;7.70;;;;;;;;;;5125071;28;20111;-81
2022/07/26 04:40:39;;;;;;;11.00;6.27;;;;;;;;;;5125239;28;20027;-80
2022/07/26 04:43:04;;;;;;;13.90;7.47;;;;;;;;;;5126021;28;20270;-80
2022/07/26 04:45:30;;;;;;;16.33;7.85;;;;;;;;;;5124725;28;20091;-81
2022/07/26 04:47:56;;;;;;;16.85;7.82;;;;;;;;;;5124802;28;20453;-80
2022/07/26 04:50:22;;;;;;;12.88;7.20;;;;;;;;;;5123286;28;20403;-79
2022/07/26 04:52:48;;;;;;;8.50;4.85;;;;;;;;;;5121764;28;20019;-80
2022/07/26 04:55:14;;;;;;;9.98;4.97;;;;;;;;;;5124712;28;20020;-80
2022/07/26 04:57:39;;;;;;;9.27;4.63;;;;;;;;;;5124681;28;20023;-81
2022/07/26 05:00:07;;;;;;;9.30;4.10;;;;;;;;;;5123614;28;20038;-79
2022/07/26 05:02:32;;;;;;;12.32;3.83;;;;;;;;;;5122663;28;20034;-78
2022/07/26 05:05:12;;;;;;;8.32;3.35;;;;;;;;;;5078136;28;20055;-79
2022/07/26 05:07:39;;;;;;;6.37;3.37;;;;;;;;;;5123366;28;20092;-79
2022/07/26 05:10:05;;;;;;;7.63;3.17;;;;;;;;;;5122797;28;20270;-79
2022/07/26 05:12:30;;;;;;;8.43;2.90;;;;;;;;;;5123474;28;20027;-80
2022/07/26 05:14:56;;;;;;;5.43;3.00;;;;;;;;;;5123903;28;20034;-80
2022/07/26 05:17:21;;;;;;;8.02;2.92;;;;;;;;;;5123974;28;20252;-80
2022/07/26 05:19:46;;;;;;;9.43;3.07;;;;;;;;;;5125436;28;20049;-80
2022/07/26 05:22:11;;;;;;;6.77;3.13;;;;;;;;;;5125142;28;20272;-80
2022/07/26 05:24:36;;;;;;;7.70;3.10;;;;;;;;;;5125436;28;20285;-80
2022/07/26 05:27:02;;;;;;;6.03;2.87;;;;;;;;;;5125516;28;20264;-78
2022/07/26 05:29:27;;;;;;;7.30;2.97;;;;;;;;;;5126320;28;20262;-80
2022/07/26 05:31:52;;;;;;;9.20;2.73;;;;;;;;;;5126786;28;20024;-80
2022/07/26 05:34:17;;;;;;;9.87;3.00;;;;;;;;;;5126921;28;20346;-79
2022/07/26 05:36:43;;;;;;;7.38;2.90;;;;;;;;;;5126451;28;20267;-79
2022/07/26 05:39:08;;;;;;;9.87;3.17;;;;;;;;;;5124409;28;20023;-79
2022/07/26 05:41:33;;;;;;;6.57;2.90;;;;;;;;;;5124868;28;20252;-80
2022/07/26 05:43:58;;;;;;;8.27;3.05;;;;;;;;;;5125613;28;20272;-80
2022/07/26 05:46:24;;;;;;;8.00;2.80;;;;;;;;;;5125331;28;20053;-79
2022/07/26 05:48:49;;;;;;;11.38;3.13;;;;;;;;;;5125859;28;20255;-80
2022/07/26 05:51:14;;;;;;;8.57;3.13;;;;;;;;;;5125972;28;20023;-81
2022/07/26 05:53:39;;;;;;;7.57;2.87;;;;;;;;;;5126253;28;20028;-79
2022/07/26 05:56:05;;;;;;;11.10;3.20;;;;;;;;;;5125155;28;20263;-79
2022/07/26 05:58:30;;;;;;;10.32;3.17;;;;;;;;;;5125041;28;20036;-79
2022/07/26 06:00:56;;;;;;;8.63;2.93;;;;;;;;;;5126391;28;20043;-81
2022/07/26 06:03:21;;;;;;;7.43;2.70;;;;;;;;;;5126215;28;20764;-78
2022/07/26 06:05:47;;;;;;;7.83;3.10;;;;;;;;;;5126642;28;20264;-80
2022/07/26 06:08:13;;;;;;;4.85;2.95;;;;;;;;;;5130888;28;20255;-79
2022/07/26 06:10:38;;;;;;;11.67;3.00;;;;;;;;;;5131038;28;20032;-81
2022/07/26 06:13:03;;;;;;;6.20;2.93;;;;;;;;;;5131565;28;20740;-80
2022/07/26 06:15:28;;;;;;;8.20;3.30;;;;;;;;;;5130385;28;20725;-80
2022/07/26 06:17:53;;;;;;;12.10;2.97;;;;;;;;;;5129888;28;20468;-80
2022/07/26 06:20:19;;;;;;;4.60;2.77;;;;;;;;;;5130726;28;20324;-79
2022/07/26 06:22:47;;;;;;;7.27;2.80;;;;;;;;;;5130861;28;20283;-79
2022/07/26 06:25:12;;;;;;;7.13;2.60;;;;;;;;;;5129853;27;20248;-80
2022/07/26 06:27:37;;;;;;;10.27;2.70;;;;;;;;;;5129804;28;20023;-80
2022/07/26 06:30:03;;;;;;;7.83;2.20;;;;;;;;;;5129145;28;20347;-80
2022/07/26 06:32:28;;;;;;;5.82;2.25;;;;;;;;;;5129116;28;20036;-79
2022/07/26 06:34:54;;;;;;;5.63;2.33;;;;;;;;;;5129674;28;20532;-80
2022/07/26 06:37:19;;;;;;;12.15;2.63;;;;;;;;;;5129996;28;20285;-79
2022/07/26 06:39:45;;;;;;;9.53;2.20;;;;;;;;;;5129508;28;20049;-79
2022/07/26 06:42:10;;;;;;;4.20;1.90;;;;;;;;;;5128130;27;20482;-78
2022/07/26 06:44:35;;;;;;;11.73;2.50;;;;;;;;;;5128317;28;20023;-80
2022/07/26 06:47:00;;;;;;;9.05;2.03;;;;;;;;;;5126593;28;20267;-79
2022/07/26 06:49:26;;;;;;;10.03;1.80;;;;;;;;;;5127323;28;20030;-80
2022/07/26 06:51:51;;;;;;;7.43;1.87;;;;;;;;;;5126568;28;20259;-79
2022/07/26 06:54:16;;;;;;;4.70;1.70;;;;;;;;;;5126831;28;20027;-80
2022/07/26 06:56:41;;;;;;;4.87;1.80;;;;;;;;;;5126359;28;20259;-80
2022/07/26 06:59:07;;;;;;;8.40;1.90;;;;;;;;;;5126360;28;20248;-79
2022/07/26 07:01:32;;;;;;;5.93;1.63;;;;;;;;;;5125520;28;20023;-80
2022/07/26 07:03:57;;;;;;;6.68;1.75;;;;;;;;;;5124103;28;20028;-79
2022/07/26 07:06:23;;;;;;;6.23;1.80;;;;;;;;;;5122582;28;20042;-80
2022/07/26 07:08:48;;;;;;;4.30;2.17;;;;;;;;;;5125741;28;20031;-78
2022/07/26 07:11:13;;;;;;;6.25;1.77;;;;;;;;;;5126550;28;20251;-79
2022/07/26 07:13:39;;;;;;;3.83;1.58;;;;;;;;;;5124645;28;20012;-79
2022/07/26 07:16:04;;;;;;;5.43;1.80;;;;;;;;;;5124457;28;20035;-79
2022/07/26 07:18:30;;;;;;;6.85;1.55;;;;;;;;;;5126998;28;20338;-79
2022/07/26 07:20:55;;;;;;;6.60;1.90;;;;;;;;;;5128223;28;20030;-78
2022/07/26 07:23:22;;;;;;;7.03;1.60;;;;;;;;;;5130399;28;20048;-78
2022/07/26 07:25:47;;;;;;;12.13;1.77;;;;;;;;;;5131357;27;20027;-80
2022/07/26 07:28:13;;;;;;;7.85;1.85;;;;;;;;;;5132196;28;20028;-79
2022/07/26 07:30:38;;;;;;;5.28;1.60;;;;;;;;;;5129512;28;20020;-78
2022/07/26 07:33:03;;;;;;;2.83;1.30;;;;;;;;;;5131846;28;20027;-79
2022/07/26 07:35:29;;;;;;;3.75;1.40;;;;;;;;;;5129377;28;20484;-79
2022/07/26 07:37:54;;;;;;;6.33;1.80;;;;;;;;;;5130105;28;20533;-79
2022/07/26 07:40:20;;;;;;;4.57;1.57;;;;;;;;;;5130910;28;20285;-77
2022/07/26 07:42:45;;;;;;;4.45;1.50;;;;;;;;;;5130721;28;20283;-78
2022/07/26 07:45:10;;;;;;;4.43;1.50;;;;;;;;;;5130598;28;20028;-78
2022/07/26 07:47:36;;;;;;;5.10;1.40;;;;;;;;;;5131036;28;20034;-79
2022/07/26 07:53:25;;;;;;;7.05;1.65;;;;;;;;;;5073723;28;20067;-80
2022/07/26 07:56:21;;;;;;;;;;;;;;;;;;;;;
2022/07/26 07:58:50;;;;;;;3.92;1.40;;;;;;;;;;5063606;28;20085;-82
2022/07/26 08:01:18;;;;;;;2.13;1.17;;;;;;;;;;5042928;28;20021;-82
2022/07/26 08:03:43;;;;;;;4.40;1.35;;;;;;;;;;5043805;28;20024;-81
2022/07/26 08:06:09;;;;;;;3.97;1.50;;;;;;;;;;5060884;28;20436;-78
2022/07/26 08:08:35;;;;;;;4.32;1.58;;;;;;;;;;5060646;28;20040;-81
2022/07/26 08:11:01;;;;;;;4.95;1.10;;;;;;;;;;5061549;28;20064;-78
2022/07/26 08:13:26;;;;;;;3.53;1.25;;;;;;;;;;5059748;28;20029;-79
2022/07/26 08:15:53;;;;;;;3.88;1.35;;;;;;;;;;5060180;28;20504;-80
2022/07/26 08:18:20;;;;;;;3.83;1.10;;;;;;;;;;5060772;28;20387;-79
2022/07/26 08:20:45;;;;;;;6.47;1.33;;;;;;;;;;5060166;28;20029;-78
2022/07/26 08:23:11;;;;;;;5.77;1.40;;;;;;;;;;5060362;28;20023;-79
2022/07/26 08:25:36;;;;;;;5.97;1.23;;;;;;;;;;5059720;28;20757;-80
2022/07/26 08:28:01;;;;;;;5.65;1.50;;;;;;;;;;5059219;28;20758;-79
2022/07/26 08:30:27;;;;;;;10.85;1.33;;;;;;;;;;5059691;28;20031;-78
2022/07/26 08:32:52;;;;;;;3.97;1.20;;;;;;;;;;5065567;28;20028;-80
2022/07/26 08:35:17;;;;;;;5.50;1.40;;;;;;;;;;5062607;28;20261;-79
2022/07/26 08:37:42;;;;;;;5.40;1.50;;;;;;;;;;5059075;28;20269;-79
2022/07/26 08:40:08;;;;;;;3.03;1.47;;;;;;;;;;5058723;28;20025;-79
2022/07/26 08:42:33;;;;;;;2.90;1.10;;;;;;;;;;5059312;28;20040;-79
2022/07/26 08:44:59;;;;;;;4.03;1.45;;;;;;;;;;5058098;28;20021;-80
2022/07/26 08:47:24;;;;;;;5.30;1.40;;;;;;;;;;5058723;28;20013;-79
2022/07/26 08:49:50;;;;;;;8.27;1.40;;;;;;;;;;5058586;28;20035;-79
2022/07/26 08:52:15;;;;;;;5.90;1.60;;;;;;;;;;5043181;28;20078;-79
2022/07/26 08:54:51;;;;;;;4.90;1.48;;;;;;;;;;5058833;28;20028;-79
2022/07/26 08:57:16;;;;;;;7.53;1.38;;;;;;;;;;5059241;28;20040;-79
2022/07/26 08:59:41;;;;;;;5.90;1.40;;;;;;;;;;5059574;28;20539;-77
2022/07/26 09:02:10;;;;;;;12.43;1.40;;;;;;;;;;5058253;28;20070;-79
2022/07/26 09:04:38;;;;;;;4.68;1.60;;;;;;;;;;5058298;28;20025;-78
2022/07/26 09:07:12;;;;;;;10.40;1.60;;;;;;;;;;5057371;28;20426;-79
2022/07/26 09:09:56;;;;;;;8.57;1.75;;;;;;;;;;5040873;28;20055;-79
2022/07/26 09:12:23;;;;;;;5.07;1.70;;;;;;;;;;5039485;28;20032;-79
2022/07/26 09:14:48;;;;;;;4.10;1.85;;;;;;;;;;5056777;28;20025;-79
2022/07/26 09:17:17;;;;;;;4.03;1.23;;;;;;;;;;5039585;28;20029;-80
2022/07/26 09:19:43;;;;;;;6.72;1.65;;;;;;;;;;5058048;28;20055;-78
2022/07/26 09:22:10;;;;;;;7.80;1.70;;;;;;;;;;5057240;28;20076;-78
2022/07/26 09:24:44;;;;;;;4.88;1.50;;;;;;;;;;5058438;28;20055;-77
2022/07/26 09:27:15;;;;;;;6.65;1.40;;;;;;;;;;5039736;28;20067;-80
2022/07/26 09:29:50;;;;;;;6.55;1.55;;;;;;;;;;5042475;28;20071;-79
2022/07/26 09:32:20;;;;;;;4.90;1.50;;;;;;;;;;5042571;28;20025;-78
2022/07/26 09:34:50;;;;;;;8.13;1.90;;;;;;;;;;5059648;28;20021;-78
2022/07/26 09:37:16;;;;;;;3.08;1.20;;;;;;;;;;5059702;28;20538;-79
2022/07/26 09:40:00;;;;;;;4.40;1.20;;;;;;;;;;5042566;28;20033;-78
2022/07/26 09:42:26;;;;;;;;;;;;;;;;;;5046647;28;20021;-79
2022/07/26 09:44:51;;;;;;;9.10;1.40;;;;;;;;;;5063963;28;19909;-78
2022/07/26 09:47:17;;;;;;;3.50;1.27;;;;;;;;;;5063447;28;20029;-79
2022/07/26 09:49:42;;;;;;;3.50;1.30;;;;;;;;;;5063388;28;20105;-78
2022/07/26 09:52:19;;;;;;;3.77;1.30;;;;;;;;;;5045379;28;20490;-80
2022/07/26 09:54:47;;;;;;;4.38;1.50;;;;;;;;;;5063139;28;20257;-78
2022/07/26 09:57:18;;;;;;;3.25;1.50;;;;;;;;;;5045641;28;20025;-80
2022/07/26 09:59:44;;;;;;;5.30;1.35;;;;;;;;;;5063626;28;20088;-78
2022/07/26 10:02:12;;;;;;;2.35;1.13;;;;;;;;;;5063623;28;20028;-79
2022/07/26 10:04:38;;;;;;;2.67;1.30;;;;;;;;;;5045916;28;20029;-78
2022/07/26 10:07:03;;;;;;;6.20;1.17;;;;;;;;;;5045748;28;20089;-78
2022/07/26 10:09:35;;;;;;;5.03;1.37;;;;;;;;;;5063504;28;20032;-78
2022/07/26 10:12:04;;;;;;;9.25;1.42;;;;;;;;;;5064037;28;20032;-78
2022/07/26 10:14:32;;;;;;;5.00;1.25;;;;;;;;;;5064410;28;20080;-79
2022/07/26 10:16:58;;;;;;;8.35;1.17;;;;;;;;;;5046228;28;20064;-77
2022/07/26 10:19:38;;;;;;;2.33;1.20;;;;;;;;;;5063936;28;20036;-78
2022/07/26 10:22:31;;;;;;;3.08;1.00;;;;;;;;;;5064201;28;20049;-78
2022/07/26 10:25:16;;;;;;;2.67;1.17;;;;;;;;;;5063977;28;20029;-79
2022/07/26 10:27:43;;;;;;;4.00;1.20;;;;;;;;;;5063757;28;20044;-78
2022/07/26 10:30:27;;;;;;;2.08;1.27;;;;;;;;;;5063371;28;20052;-79
2022/07/26 10:33:06;;;;;;;2.60;1.17;;;;;;;;;;5045962;28;20028;-80
2022/07/26 10:35:39;;;;;;;11.40;1.17;;;;;;;;;;5063819;28;20021;-80
2022/07/26 10:38:07;;;;;;;3.67;1.20;;;;;;;;;;5064173;28;20501;-79
2022/07/26 10:40:33;;;;;;;3.83;1.27;;;;;;;;;;5062736;28;20036;-79
2022/07/26 10:43:13;;;;;;;4.47;1.27;;;;;;;;;;5063538;28;20020;-78
2022/07/26 10:45:39;;;;;;;2.83;1.30;;;;;;;;;;5063681;28;20025;-79
2022/07/26 10:48:16;;;;;;;5.95;1.33;;;;;;;;;;5063071;28;20035;-79
2022/07/26 10:50:43;;;;;;;4.65;1.30;;;;;;;;;;5062569;28;20029;-79
2022/07/26 10:53:15;;;;;;;2.22;1.23;;;;;;;;;;5062857;28;20025;-79
2022/07/26 10:55:52;;;;;;;4.63;1.17;;;;;;;;;;5063537;28;20417;-78
2022/07/26 10:58:18;;;;;;;4.85;1.08;;;;;;;;;;5064473;28;20025;-79
2022/07/26 11:01:01;;;;;;;9.18;0.98;;;;;;;;;;5062475;28;20037;-79
2022/07/26 11:03:41;;;;;;;3.33;0.88;;;;;;;;;;5062929;28;20021;-79
2022/07/26 11:06:10;;;;;;;3.38;1.23;;;;;;;;;;5063155;28;20398;-79
2022/07/26 11:08:35;;;;;;;2.80;0.70;;;;;;;;;;5062615;28;20393;-80
2022/07/26 11:11:01;;;;;;;5.87;1.00;;;;;;;;;;5063196;28;20108;-79
2022/07/26 11:13:27;;;;;;;3.58;1.10;;;;;;;;;;5063226;28;20282;-78
2022/07/26 11:16:04;;;;;;;3.95;0.88;;;;;;;;;;5063557;28;20033;-78
2022/07/26 11:18:34;;;;;;;4.43;1.08;;;;;;;;;;5063260;28;20033;-78
2022/07/26 11:21:16;;;;;;;7.25;1.10;;;;;;;;;;5063452;28;20070;-78
2022/07/26 11:23:46;;;;;;;1.20;0.80;;;;;;;;;;5063204;28;20057;-78
2022/07/26 11:26:24;;;;;;;1.48;0.80;;;;;;;;;;5045493;28;20025;-78
2022/07/26 11:28:55;;;;;;;4.60;1.98;;;;;;;;;;5062523;28;20032;-79
2022/07/26 11:31:25;;;;;;;5.95;0.85;;;;;;;;;;5062823;28;20021;-79
2022/07/26 11:33:52;;;;;;;2.67;1.00;;;;;;;;;;5061450;28;20017;-79
2022/07/26 11:36:30;;;;;;;1.98;0.90;;;;;;;;;;5062857;28;20025;-79
2022/07/26 11:38:55;;;;;;;5.75;1.00;;;;;;;;;;5044126;28;20062;-79
2022/07/26 11:41:25;;;;;;;2.77;1.10;;;;;;;;;;5062763;28;20067;-80
2022/07/26 11:43:51;;;;;;;4.10;1.00;;;;;;;;;;5063353;28;20786;-79
2022/07/26 11:46:18;;;;;;;1.75;1.08;;;;;;;;;;5061718;28;20084;-78
2022/07/26 11:48:48;;;;;;;8.23;1.10;;;;;;;;;;5044324;28;20474;-79
2022/07/26 11:51:19;;;;;;;5.13;1.00;;;;;;;;;;5044391;28;20037;-79
2022/07/26 11:53:45;;;;;;;5.85;1.20;;;;;;;;;;5061510;28;20125;-78
2022/07/26 11:56:13;;;;;;;2.28;1.00;;;;;;;;;;5027791;28;20032;-78
2022/07/26 11:58:40;;;;;;;2.92;1.02;;;;;;;;;;5043289;28;20025;-79
2022/07/26 12:01:06;;;;;;;2.92;1.00;;;;;;;;;;5062283;28;20068;-81
2022/07/26 12:03:36;;;;;;;5.18;0.93;;;;;;;;;;5062003;28;20024;-79
2022/07/26 12:06:11;;;;;;;4.43;1.10;;;;;;;;;;5044404;28;20035;-79
2022/07/26 12:08:49;;;;;;;4.15;1.10;;;;;;;;;;5062570;28;20021;-79
2022/07/26 12:11:16;;;;;;;3.28;1.00;;;;;;;;;;5061083;28;20032;-77
2022/07/26 12:13:48;;;;;;;1.30;0.80;;;;;;;;;;5061934;28;20366;-80
2022/07/26 12:16:31;;;;;;;3.75;1.00;;;;;;;;;;5045436;28;20049;-80
2022/07/26 12:18:57;;;;;;;2.67;0.80;;;;;;;;;;5062334;28;20029;-78
2022/07/26 12:21:37;;;;;;;1.60;0.70;;;;;;;;;;5061413;28;20077;-78
2022/07/26 12:24:03;;;;;;;1.33;0.90;;;;;;;;;;5062296;28;20033;-79
2022/07/26 12:26:29;;;;;;;4.90;0.90;;;;;;;;;;5044697;28;20082;-80
2022/07/26 12:28:55;;;;;;;3.08;0.85;;;;;;;;;;5062103;28;20017;-79
2022/07/26 12:31:28;;;;;;;3.08;0.90;;;;;;;;;;5061422;28;20106;-80
2022/07/26 12:33:54;;;;;;;2.53;1.17;;;;;;;;;;5043560;28;20121;-78
2022/07/26 12:36:20;;;;;;;6.25;1.20;;;;;;;;;;5061650;28;20061;-78
2022/07/26 12:38:46;;;;;;;2.17;0.80;;;;;;;;;;5061255;28;20033;-79
2022/07/26 12:41:11;;;;;;;3.03;1.13;;;;;;;;;;5060445;28;20032;-79
2022/07/26 12:43:40;;;;;;;3.50;0.80;;;;;;;;;;5061648;28;20055;-80
2022/07/26 12:46:05;;;;;;;1.50;0.77;;;;;;;;;;5042963;28;20269;-78
2022/07/26 12:48:30;;;;;;;2.37;0.80;;;;;;;;;;5061392;28;20037;-80
2022/07/26 12:50:56;;;;;;;1.15;0.90;;;;;;;;;;5061432;28;20691;-78
2022/07/26 12:53:21;;;;;;;2.15;0.93;;;;;;;;;;5061376;28;20032;-78
2022/07/26 12:55:47;;;;;;;3.83;0.80;;;;;;;;;;5061454;28;20401;-81
2022/07/26 12:58:12;;;;;;;3.55;0.80;;;;;;;;;;5060986;28;20288;-80
2022/07/26 13:00:37;;;;;;;1.87;0.70;;;;;;;;;;5061234;28;20537;-79
2022/07/26 13:03:03;;;;;;;2.15;0.60;;;;;;;;;;5060970;28;20506;-78
2022/07/26 13:05:30;;;;;;;2.10;0.80;;;;;;;;;;5062022;28;20084;-79
2022/07/26 13:07:55;;;;;;;5.47;0.90;;;;;;;;;;5061932;28;20036;-79
2022/07/26 13:10:20;;;;;;;1.13;0.70;;;;;;;;;;5062261;28;20021;-79
2022/07/26 13:12:46;;;;;;;3.15;0.88;;;;;;;;;;5061289;28;20061;-78
2022/07/26 13:15:11;;;;;;;1.08;0.70;;;;;;;;;;5060802;28;20024;-78
2022/07/26 13:17:36;;;;;;;1.77;0.90;;;;;;;;;;5042968;28;20017;-79
2022/07/26 13:20:02;;;;;;;5.57;1.20;;;;;;;;;;5061653;28;20486;-80
2022/07/26 13:22:27;;;;;;;3.80;0.90;;;;;;;;;;5060947;28;20585;-78
2022/07/26 13:24:52;;;;;;;2.90;1.00;;;;;;;;;;5061238;28;20036;-78
2022/07/26 13:27:17;;;;;;;2.23;0.90;;;;;;;;;;5060983;28;20265;-78
2022/07/26 13:29:43;;;;;;;2.97;0.88;;;;;;;;;;5060945;28;20033;-79
2022/07/26 13:32:08;;;;;;;3.88;0.90;;;;;;;;;;5060809;28;20486;-78
2022/07/26 13:34:33;;;;;;;1.63;1.00;;;;;;;;;;5061304;28;20036;-77
2022/07/26 13:36:58;;;;;;;3.92;0.90;;;;;;;;;;5060563;28;20032;-78
2022/07/26 13:39:25;;;;;;;2.47;0.90;;;;;;;;;;5061663;28;20122;-79
2022/07/26 13:41:51;;;;;;;1.40;0.90;;;;;;;;;;5060663;28;20021;-78
2022/07/26 13:44:16;;;;;;;1.05;0.88;;;;;;;;;;5062154;28;20024;-79
2022/07/26 13:46:42;;;;;;;4.40;0.90;;;;;;;;;;5041128;28;20029;-79
2022/07/26 13:49:07;;;;;;;9.00;1.00;;;;;;;;;;5059960;28;20037;-77
2022/07/26 13:54:21;;;;;;;4.28;1.02;;;;;;;;;;5061094;28;20475;-79
2022/07/26 13:56:48;;;;;;;3.70;1.10;;;;;;;;;;5061198;28;20028;-78
2022/07/26 13:59:13;;;;;;;4.72;1.15;;;;;;;;;;5059591;28;20027;-79
2022/07/26 14:01:39;;;;;;;2.47;1.10;;;;;;;;;;5061352;28;20052;-80
2022/07/26 14:04:06;;;;;;;4.38;1.00;;;;;;;;;;5060127;28;20108;-79
2022/07/26 14:06:32;;;;;;;6.70;0.90;;;;;;;;;;5059767;28;20033;-79
2022/07/26 14:08:58;;;;;;;3.95;1.10;;;;;;;;;;5059027;28;20379;-79
2022/07/26 14:11:23;;;;;;;4.18;1.38;;;;;;;;;;5059561;28;20100;-79
2022/07/26 14:13:49;;;;;;;4.30;1.00;;;;;;;;;;5058834;28;20029;-78
2022/07/26 14:16:14;;;;;;;5.72;1.10;;;;;;;;;;5040458;28;20393;-80
2022/07/26 14:18:39;;;;;;;3.27;0.93;;;;;;;;;;5057353;28;20025;-78
2022/07/26 14:21:04;;;;;;;3.67;1.05;;;;;;;;;;5057538;28;20029;-80
2022/07/26 14:23:30;;;;;;;3.67;1.02;;;;;;;;;;5057538;28;20482;-80
2022/07/26 14:25:55;;;;;;;1.50;1.00;;;;;;;;;;5057716;28;20021;-79
2022/07/26 14:28:21;;;;;;;2.35;1.20;;;;;;;;;;5060227;28;20029;-79
2022/07/26 14:30:46;;;;;;;3.65;1.23;;;;;;;;;;5060464;28;20103;-79
2022/07/26 14:33:11;;;;;;;1.63;0.90;;;;;;;;;;5060539;28;20386;-79
2022/07/26 14:35:37;;;;;;;3.42;1.23;;;;;;;;;;5060079;28;20344;-79
2022/07/26 14:38:02;;;;;;;1.70;0.90;;;;;;;;;;5059116;28;20029;-79
2022/07/26 14:40:27;;;;;;;2.27;1.03;;;;;;;;;;5058347;28;20036;-81